Terminal Aerodrome Forecast
Issued by NWS

Home | Current Version | Previous Version | Text Only | Print | Product List | Glossary On
Versions: 1 2 3 4 5 6 7 8 9 10 11 12 13 14 15 16 17 18 19 20 21 22 23 24
724
FTUS43 KLOT 240536
TAFMDW
TAF
KMDW 240536Z 2406/2512 04006KT P6SM -DZ SCT010 BKN012 OVC030
     FM240800 03005KT P6SM VCSH SCT008 OVC012
      TEMPO 2410/2413 6SM -RA BR SCT007 OVC010
     FM241600 03008KT P6SM OVC015
     FM242100 02013KT P6SM BKN020 OVC090
     FM250400 01016G25KT P6SM FEW020 SCT040 BKN100
     FM251000 01015G23KT P6SM SKC=

USA.gov is the U.S. government's official web portal to all federal, state and local government web resources and services.